Säätilassa ei varoituksia.

Lähimmät METAR asemat

 

EFPO - Pori (mil/Civ), Finland
Distance from station: PLU 42km
Päivitetty: 17/11/2019 14:50
Heavy drizzle, Vaihtelevaa
Heavy drizzle, Vaihtelevaa
 Wind from E
Tuuli: E 11 km/h
Lämpötila: 7°C
Wind Chill: 5°C
Kastepiste: 6°C
Kosteus: 93%
Ilmanpaine: 1013 hPa
Yhteenveto: Heavy Drizzle
Clouds: Vaihtelevaa
Visibility: 5 km
Cloud details: Vaihtelevaa 152 m
2019/11/17 12:50 EFPO 171250Z AUTO 17006KT 4600 +DZ OVC005 07/06 Q1013
EFTU - Turku/Abo, Finland
Distance from station: E 68km
Päivitetty: 17/11/2019 15:20
Vaihtelevaa
Vaihtelevaa
 Wind from ELO
Tuuli: ELO 22 km/h
Lämpötila: 8°C
Wind Chill: 4°C
Kastepiste: 5°C
Kosteus: 82%
Ilmanpaine: 1015 hPa
Clouds: Vaihtelevaa
Visibility: 10 km
Cloud details: Vaihtelevaa 427 m
2019/11/17 13:20 EFTU 171320Z AUTO 21012KT 9999 OVC014 08/05 Q1015
 
EFTP - Tampere/Pirkkala, Finland
Distance from station: IKO 84km
Päivitetty: 17/11/2019 15:20
Light, Vaihtelevaa
Light, Vaihtelevaa
 Wind from E
Tuuli: E 11 km/h
Lämpötila: 6°C
Wind Chill: 4°C
Kastepiste: 6°C
Kosteus: 100%
Ilmanpaine: 1015 hPa
Yhteenveto: Light
Clouds: Vaihtelevaa
Visibility: 8 km
Cloud details: Few Clouds 213 m
Enimmäkseen pilvistä 335 m
Vaihtelevaa 488 m
2019/11/17 13:20 EFTP 171320Z AUTO 18006KT 8000 -UP FEW007 BKN011 OVC016/// 06/06 Q1015